Time;durP1;ratioP1;P1;durP2;ratioP2;P2;SDS_P1;SDS_P2;PMS_P1;PMS_P2;Temp;Humidity;BMP_temperature;BMP_pressure;BME280_temperature;BME280_humidity;BME280_pressure;Samples;Min_cycle;Max_cycle;Signal;HPM_P1;HPM_P2
2023/10/26 00:01:30;;;;;;;17.35;11.00;;;11.80;92.40;;;;;;9163060;19;20449;-71
2023/10/26 00:04:44;;;;;;;16.90;10.35;;;11.90;92.60;;;;;;9163979;19;20016;-71
2023/10/26 00:07:50;;;;;;;19.75;9.68;;;11.80;92.70;;;;;;9165633;19;20022;-72
2023/10/26 00:11:04;;;;;;;17.48;10.07;;;11.90;93.00;;;;;;9165992;19;20025;-71
2023/10/26 00:14:12;;;;;;;21.17;9.98;;;11.90;92.90;;;;;;9163951;19;20026;-71
2023/10/26 00:17:24;;;;;;;16.38;10.02;;;11.90;93.40;;;;;;9163310;19;20020;-70
2023/10/26 00:20:30;;;;;;;18.70;10.18;;;11.90;94.00;;;;;;9168987;19;20033;-72
2023/10/26 00:23:39;;;;;;;15.30;9.65;;;11.90;94.20;;;;;;9168335;19;20365;-72
2023/10/26 00:26:45;;;;;;;14.57;9.30;;;11.90;97.20;;;;;;9165063;19;20011;-70
2023/10/26 00:29:54;;;;;;;14.23;9.32;;;11.80;91.80;;;;;;9166894;19;20022;-71
2023/10/26 00:33:03;;;;;;;18.63;10.20;;;11.90;91.90;;;;;;9165459;19;20011;-72
2023/10/26 00:36:11;;;;;;;17.95;10.52;;;11.80;91.80;;;;;;9163908;19;20038;-71
2023/10/26 00:39:21;;;;;;;13.85;8.40;;;11.80;91.80;;;;;;9165117;19;20022;-71
2023/10/26 00:42:28;;;;;;;13.95;8.02;;;11.80;91.90;;;;;;9167914;19;20022;-71
2023/10/26 00:45:36;;;;;;;12.30;8.43;;;11.90;92.20;;;;;;9164833;19;20040;-71
2023/10/26 00:48:49;;;;;;;16.30;9.60;;;11.90;92.00;;;;;;9167479;19;20007;-71
2023/10/26 00:51:58;;;;;;;15.05;9.35;;;11.90;92.00;;;;;;9166651;19;20026;-71
2023/10/26 00:55:08;;;;;;;21.85;9.68;;;11.80;92.20;;;;;;9166620;19;20482;-70
2023/10/26 00:58:14;;;;;;;17.25;10.10;;;11.80;92.10;;;;;;9164319;19;20023;-69
2023/10/26 01:01:27;;;;;;;17.08;9.68;;;11.80;92.20;;;;;;9164321;19;20007;-71
2023/10/26 01:04:35;;;;;;;21.60;10.93;;;11.80;92.30;;;;;;9164202;19;20026;-71
2023/10/26 01:07:43;;;;;;;21.63;10.68;;;11.80;92.20;;;;;;9165317;19;20677;-71
2023/10/26 01:10:52;;;;;;;22.90;9.90;;;11.90;92.30;;;;;;9163493;19;20014;-71
2023/10/26 01:14:00;;;;;;;14.60;9.20;;;11.80;92.20;;;;;;9160801;19;20014;-70
2023/10/26 01:17:07;;;;;;;16.20;9.85;;;11.70;92.30;;;;;;9164133;19;20025;-72
2023/10/26 01:20:22;;;;;;;16.17;9.32;;;11.80;92.30;;;;;;9163111;19;20361;-72
2023/10/26 01:23:32;;;;;;;16.23;9.45;;;11.80;92.50;;;;;;9162528;19;20443;-72
2023/10/26 01:26:41;;;;;;;16.35;9.93;;;11.80;92.40;;;;;;9164022;19;20049;-71
2023/10/26 01:29:47;;;;;;;18.25;10.88;;;11.80;92.60;;;;;;9164271;19;20018;-71
2023/10/26 01:32:55;;;;;;;20.15;9.60;;;11.80;92.70;;;;;;9163018;19;20487;-71
2023/10/26 01:36:01;;;;;;;29.90;11.38;;;11.90;92.70;;;;;;9165622;19;20026;-71
2023/10/26 01:39:13;;;;;;;20.02;11.35;;;11.80;92.70;;;;;;9165481;19;20052;-72
2023/10/26 01:42:19;;;;;;;17.45;11.15;;;11.80;92.80;;;;;;9173217;19;20082;-71
2023/10/26 01:45:27;;;;;;;17.80;10.15;;;11.80;92.80;;;;;;9174005;19;20015;-71
2023/10/26 01:48:33;;;;;;;17.27;10.13;;;11.80;92.80;;;;;;9175601;19;20030;-72
2023/10/26 01:51:45;;;;;;;17.77;9.75;;;11.80;93.00;;;;;;9172539;19;20018;-70
2023/10/26 01:54:55;;;;;;;18.77;10.70;;;11.80;92.80;;;;;;9172906;19;20365;-72
2023/10/26 01:58:03;;;;;;;20.73;10.63;;;11.90;93.20;;;;;;9171734;19;20034;-72
2023/10/26 02:01:08;;;;;;;17.50;10.10;;;11.80;92.90;;;;;;9171421;19;20027;-70
2023/10/26 02:04:17;;;;;;;16.38;9.77;;;11.80;93.10;;;;;;9174249;19;20022;-71
2023/10/26 02:07:24;;;;;;;21.73;11.60;;;11.80;93.10;;;;;;9171543;19;20022;-71
2023/10/26 02:10:34;;;;;;;21.63;12.63;;;11.80;93.20;;;;;;9172878;19;20932;-70
2023/10/26 02:13:41;;;;;;;17.20;9.68;;;11.90;93.60;;;;;;9169676;19;20072;-70
2023/10/26 02:16:49;;;;;;;20.83;10.50;;;11.80;93.90;;;;;;9173015;19;20010;-70
2023/10/26 02:19:57;;;;;;;17.08;9.98;;;11.80;94.20;;;;;;9173079;19;20888;-71
2023/10/26 02:23:08;;;;;;;20.20;11.07;;;11.90;94.20;;;;;;9172187;19;20078;-70
2023/10/26 02:26:18;;;;;;;18.70;10.95;;;11.80;95.00;;;;;;9172551;19;20025;-71
2023/10/26 02:29:27;;;;;;;17.88;10.23;;;11.90;95.00;;;;;;9171185;19;20019;-72
2023/10/26 02:32:34;;;;;;;17.92;10.38;;;11.80;93.00;;;;;;9171307;19;20018;-71
2023/10/26 02:35:45;;;;;;;17.90;9.98;;;11.80;93.20;;;;;;9172332;19;20041;-69
2023/10/26 02:39:04;;;;;;;17.88;10.30;;;11.80;93.20;;;;;;9167256;19;20298;-73
2023/10/26 02:42:24;;;;;;;16.63;9.57;;;11.80;93.30;;;;;;9170713;19;20010;-70
2023/10/26 02:45:29;;;;;;;15.82;9.98;;;11.80;93.30;;;;;;9170995;19;20018;-71
2023/10/26 02:48:37;;;;;;;18.40;10.73;;;11.80;93.80;;;;;;9172640;19;20015;-71
2023/10/26 02:51:46;;;;;;;19.00;11.43;;;11.90;94.70;;;;;;9167853;19;20028;-71
2023/10/26 02:54:53;;;;;;;19.30;11.80;;;11.80;92.10;;;;;;9169810;19;20014;-70
2023/10/26 02:58:02;;;;;;;20.92;11.35;;;11.80;92.50;;;;;;9169422;19;20086;-70
2023/10/26 03:01:11;;;;;;;20.00;11.93;;;11.80;92.70;;;;;;9170730;19;20019;-70
2023/10/26 03:04:16;;;;;;;20.25;12.18;;;11.70;92.70;;;;;;9168401;19;20018;-72
2023/10/26 03:07:25;;;;;;;27.38;11.90;;;11.80;93.00;;;;;;9168838;19;20488;-71
2023/10/26 03:10:34;;;;;;;28.10;12.90;;;11.80;93.20;;;;;;9170272;19;20115;-71
2023/10/26 03:13:44;;;;;;;19.50;12.02;;;11.80;93.50;;;;;;9166180;19;20380;-71
2023/10/26 03:16:51;;;;;;;20.73;11.40;;;11.80;94.60;;;;;;9171032;19;20018;-71
2023/10/26 03:19:58;;;;;;;17.60;11.43;;;11.80;95.90;;;;;;9168320;19;20014;-71
2023/10/26 03:23:07;;;;;;;22.92;12.32;;;11.90;94.40;;;;;;9165993;19;20018;-71
2023/10/26 03:26:15;;;;;;;18.25;11.68;;;11.90;95.50;;;;;;9168909;19;20017;-71
2023/10/26 03:29:24;;;;;;;22.17;12.85;;;11.90;95.70;;;;;;9170931;19;20082;-71
2023/10/26 03:32:31;;;;;;;26.67;13.00;;;11.80;95.80;;;;;;9170836;19;20025;-71
2023/10/26 03:35:37;;;;;;;21.65;13.23;;;11.90;95.60;;;;;;9174029;19;20485;-72
2023/10/26 03:38:49;;;;;;;22.60;13.63;;;11.80;92.70;;;;;;9169314;19;20010;-71
2023/10/26 03:41:55;;;;;;;19.60;11.98;;;11.90;92.50;;;;;;9169115;19;20022;-71
2023/10/26 03:45:12;;;;;;;20.77;13.15;;;11.80;92.70;;;;;;9170006;19;20018;-70
2023/10/26 03:48:21;;;;;;;26.33;14.90;;;11.90;92.60;;;;;;9169050;19;20019;-71
2023/10/26 03:51:29;;;;;;;25.23;13.30;;;11.80;92.90;;;;;;9166291;19;20860;-71
2023/10/26 03:54:35;;;;;;;28.23;15.05;;;11.90;92.70;;;;;;9165642;19;20025;-71
2023/10/26 03:57:43;;;;;;;27.45;15.25;;;11.90;92.70;;;;;;9167537;19;20013;-71
2023/10/26 04:00:51;;;;;;;27.25;15.30;;;11.90;92.80;;;;;;9166804;19;20019;-72
2023/10/26 04:03:59;;;;;;;31.85;16.45;;;11.90;93.40;;;;;;9166049;19;20010;-71
2023/10/26 04:07:04;;;;;;;26.95;16.15;;;11.90;92.50;;;;;;9165831;19;20516;-72
2023/10/26 04:10:12;;;;;;;28.20;16.35;;;11.80;94.50;;;;;;9163500;19;20021;-71
2023/10/26 04:13:18;;;;;;;27.23;17.02;;;11.80;93.90;;;;;;9162791;19;20465;-72
2023/10/26 04:16:29;;;;;;;25.98;15.60;;;11.80;93.60;;;;;;9166398;19;20507;-70
2023/10/26 04:19:35;;;;;;;27.52;16.17;;;11.80;93.50;;;;;;9166049;19;20059;-71
2023/10/26 04:22:43;;;;;;;26.77;15.57;;;11.90;93.40;;;;;;9166618;19;20605;-72
2023/10/26 04:25:48;;;;;;;28.02;15.98;;;11.90;93.70;;;;;;9166587;19;20022;-71
2023/10/26 04:29:01;;;;;;;29.80;16.05;;;11.80;94.00;;;;;;9167744;19;20019;-72
2023/10/26 04:32:12;;;;;;;25.05;15.30;;;11.90;94.10;;;;;;9165662;19;20873;-71
2023/10/26 04:35:19;;;;;;;24.20;15.15;;;11.90;94.30;;;;;;9165907;19;20007;-71
2023/10/26 04:38:25;;;;;;;28.88;15.90;;;11.90;94.80;;;;;;9166126;19;20030;-71
2023/10/26 04:41:33;;;;;;;23.95;15.90;;;11.90;96.40;;;;;;9165364;19;20037;-72
2023/10/26 04:44:39;;;;;;;27.92;16.83;;;12.40;96.30;;;;;;9167648;19;20111;-71
2023/10/26 04:47:49;;;;;;;28.23;17.05;;;11.90;93.20;;;;;;9166952;19;20019;-71
2023/10/26 04:51:03;;;;;;;27.42;16.45;;;11.80;93.20;;;;;;9167085;19;20030;-74
2023/10/26 04:54:11;;;;;;;27.38;16.55;;;11.80;93.50;;;;;;9165295;19;20029;-71
2023/10/26 04:57:18;;;;;;;30.25;16.73;;;11.80;93.40;;;;;;9164476;19;20549;-71
2023/10/26 05:00:29;;;;;;;25.73;16.48;;;11.80;93.40;;;;;;9165203;19;20010;-72
2023/10/26 05:03:39;;;;;;;31.35;17.00;;;11.80;93.60;;;;;;9165705;19;20025;-71
2023/10/26 05:06:47;;;;;;;28.83;19.13;;;11.90;93.60;;;;;;9164583;19;20018;-72
2023/10/26 05:09:52;;;;;;;26.90;16.92;;;11.90;92.40;;;;;;9164195;19;20018;-71
2023/10/26 05:13:03;;;;;;;27.90;17.63;;;11.90;92.40;;;;;;9162999;19;20014;-71
2023/10/26 05:16:09;;;;;;;30.15;17.92;;;11.90;92.30;;;;;;9170859;19;20018;-71
2023/10/26 05:19:19;;;;;;;30.33;17.52;;;11.80;92.40;;;;;;9171255;19;20044;-71
2023/10/26 05:22:28;;;;;;;31.38;18.48;;;11.80;92.50;;;;;;9172217;19;20015;-71
2023/10/26 05:25:38;;;;;;;27.38;17.40;;;11.90;92.30;;;;;;9173698;19;20526;-71
2023/10/26 05:28:43;;;;;;;30.40;17.25;;;11.90;92.40;;;;;;9174385;19;20038;-71
2023/10/26 05:31:55;;;;;;;34.28;19.30;;;11.80;92.40;;;;;;9174278;19;20022;-71
2023/10/26 05:35:03;;;;;;;32.63;18.33;;;11.80;91.90;;;;;;9173499;19;20031;-71
2023/10/26 05:38:11;;;;;;;28.98;18.10;;;11.90;92.60;;;;;;9174596;19;20006;-71
2023/10/26 05:41:17;;;;;;;28.48;18.23;;;11.90;92.30;;;;;;9173102;19;20350;-71
2023/10/26 05:44:25;;;;;;;31.42;17.88;;;11.90;92.40;;;;;;9173357;19;20074;-70
2023/10/26 05:47:30;;;;;;;30.92;18.60;;;11.80;92.50;;;;;;9174030;19;20048;-71
2023/10/26 05:50:41;;;;;;;32.40;19.63;;;11.80;92.30;;;;;;9172140;19;20018;-71
2023/10/26 05:53:47;;;;;;;38.35;20.13;;;11.90;92.50;;;;;;9171842;19;20014;-71
2023/10/26 05:56:54;;;;;;;33.33;18.33;;;11.80;92.50;;;;;;9173236;19;20007;-71
2023/10/26 05:59:59;;;;;;;33.72;19.65;;;11.90;92.60;;;;;;9171335;19;20022;-70
2023/10/26 06:03:07;;;;;;;33.50;19.30;;;11.90;92.30;;;;;;9172799;19;20021;-71
2023/10/26 06:06:15;;;;;;;32.53;19.17;;;11.80;92.30;;;;;;9169365;19;20842;-70
2023/10/26 06:09:24;;;;;;;38.45;20.45;;;11.80;92.30;;;;;;9169913;19;20018;-70
2023/10/26 06:12:29;;;;;;;34.20;19.25;;;11.80;92.30;;;;;;9167025;19;20048;-71
2023/10/26 06:15:37;;;;;;;31.80;19.25;;;11.80;92.20;;;;;;9171711;19;20022;-70
2023/10/26 06:18:42;;;;;;;34.88;20.55;;;11.80;92.40;;;;;;9172107;19;20022;-71
2023/10/26 06:21:52;;;;;;;33.45;20.42;;;11.80;92.30;;;;;;9169205;19;20014;-70
2023/10/26 06:24:58;;;;;;;40.42;20.30;;;11.90;92.30;;;;;;9168518;19;21688;-70
2023/10/26 06:28:06;;;;;;;33.35;19.85;;;11.80;92.20;;;;;;9165314;19;20029;-70
2023/10/26 06:31:14;;;;;;;35.17;20.75;;;11.80;92.40;;;;;;9166731;19;20021;-71
2023/10/26 06:34:22;;;;;;;35.33;19.58;;;11.80;92.30;;;;;;9166572;19;20021;-71
2023/10/26 06:37:30;;;;;;;40.20;21.80;;;11.80;92.30;;;;;;9167197;19;20503;-71
2023/10/26 06:40:40;;;;;;;37.20;21.53;;;11.80;92.30;;;;;;9163110;19;20082;-70
2023/10/26 06:43:46;;;;;;;38.63;21.33;;;11.80;92.40;;;;;;9165797;19;20014;-70
2023/10/26 06:46:54;;;;;;;35.30;20.90;;;11.80;92.30;;;;;;9172970;19;20014;-71
2023/10/26 06:49:59;;;;;;;39.95;22.08;;;11.90;92.30;;;;;;9172226;19;20010;-72
2023/10/26 06:53:10;;;;;;;38.80;21.33;;;11.80;92.30;;;;;;9174157;19;20014;-70
2023/10/26 06:56:15;;;;;;;44.13;23.17;;;11.80;92.10;;;;;;9174586;19;20018;-70
2023/10/26 06:59:23;;;;;;;43.08;22.70;;;11.80;92.10;;;;;;9166107;19;20029;-70
2023/10/26 07:02:28;;;;;;;37.38;23.17;;;11.70;92.20;;;;;;9169826;19;20056;-69
2023/10/26 07:05:36;;;;;;;43.67;24.90;;;11.70;92.20;;;;;;9169161;19;20029;-70
2023/10/26 07:08:46;;;;;;;44.47;24.17;;;11.80;92.40;;;;;;9167355;19;20025;-68
2023/10/26 07:12:02;;;;;;;42.88;22.52;;;11.80;92.20;;;;;;9162528;19;20022;-69
2023/10/26 07:15:08;;;;;;;42.47;24.15;;;11.80;92.30;;;;;;9165249;19;20024;-70
2023/10/26 07:18:18;;;;;;;46.60;23.48;;;11.80;92.10;;;;;;9166250;19;20020;-70
2023/10/26 07:21:25;;;;;;;49.10;25.15;;;11.80;92.30;;;;;;9164792;19;20025;-70
2023/10/26 07:24:35;;;;;;;48.53;26.05;;;11.80;92.40;;;;;;9167406;19;20054;-68
2023/10/26 07:27:42;;;;;;;50.03;26.33;;;12.10;92.60;;;;;;9164689;19;20014;-68
2023/10/26 07:30:51;;;;;;;51.10;27.70;;;12.00;92.40;;;;;;9165288;19;20014;-67
2023/10/26 07:33:56;;;;;;;48.00;26.25;;;11.80;92.30;;;;;;9164714;19;20018;-68
2023/10/26 07:37:04;;;;;;;47.03;26.75;;;11.80;92.40;;;;;;9166409;19;20022;-68
2023/10/26 07:40:16;;;;;;;50.42;26.77;;;11.90;92.60;;;;;;9164602;19;20026;-67
2023/10/26 07:43:36;;;;;;;46.20;26.08;;;11.90;92.40;;;;;;9163855;19;20464;-67
2023/10/26 07:46:41;;;;;;;47.97;26.38;;;11.90;92.70;;;;;;9162522;19;20025;-67
2023/10/26 07:50:09;;;;;;;51.75;27.30;;;11.90;92.50;;;;;;9164634;19;20889;-68
2023/10/26 07:53:18;;;;;;;52.85;27.77;;;11.90;92.30;;;;;;9163051;19;20038;-67
2023/10/26 07:56:31;;;;;;;47.85;26.70;;;11.90;92.30;;;;;;9164098;19;20022;-67
2023/10/26 07:59:38;;;;;;;54.60;25.98;;;12.00;92.50;;;;;;9164647;19;20025;-69
2023/10/26 08:02:44;;;;;;;53.15;26.75;;;12.00;92.50;;;;;;9166463;19;20018;-67
2023/10/26 08:06:00;;;;;;;49.35;27.25;;;12.10;92.40;;;;;;9165795;19;20014;-69
2023/10/26 08:09:06;;;;;;;49.55;26.80;;;12.00;92.40;;;;;;9157176;19;20133;-68
2023/10/26 08:12:16;;;;;;;47.88;24.95;;;12.00;92.60;;;;;;9161523;19;20359;-67
2023/10/26 08:15:23;;;;;;;44.03;26.52;;;12.00;92.60;;;;;;9164184;19;20050;-67
2023/10/26 08:18:51;;;;;;;48.75;26.45;;;12.10;92.60;;;;;;9163596;19;20550;-67
2023/10/26 08:21:57;;;;;;;41.72;24.52;;;12.10;92.50;;;;;;9162287;19;20161;-67
2023/10/26 08:25:04;;;;;;;49.20;25.65;;;12.10;92.70;;;;;;9165515;19;20119;-68
2023/10/26 08:28:12;;;;;;;50.33;25.83;;;12.10;92.60;;;;;;9164018;19;20865;-67
2023/10/26 08:31:20;;;;;;;50.40;26.42;;;12.20;92.80;;;;;;9165349;19;20022;-68
2023/10/26 08:34:29;;;;;;;51.03;25.88;;;12.20;92.50;;;;;;9165024;19;20658;-68
2023/10/26 08:37:57;;;;;;;46.45;26.00;;;12.30;92.60;;;;;;9164500;19;20015;-67
2023/10/26 08:41:03;;;;;;;47.70;23.75;;;12.40;92.70;;;;;;9162530;19;20022;-69
2023/10/26 08:44:14;;;;;;;41.78;23.58;;;12.30;92.90;;;;;;9163820;19;20022;-67
2023/10/26 08:47:22;;;;;;;45.42;23.55;;;12.40;92.80;;;;;;9164717;19;20055;-68
2023/10/26 08:50:36;;;;;;;40.72;22.05;;;12.40;92.40;;;;;;9161153;19;20693;-69
2023/10/26 08:53:42;;;;;;;40.80;22.08;;;12.40;92.50;;;;;;9161539;19;20019;-69
2023/10/26 08:56:49;;;;;;;39.25;21.80;;;12.50;92.40;;;;;;9163898;19;20421;-71
2023/10/26 08:59:59;;;;;;;44.80;22.52;;;12.50;92.50;;;;;;9160407;19;20034;-67
2023/10/26 09:03:06;;;;;;;40.38;21.75;;;12.40;92.60;;;;;;9163590;19;20010;-67
2023/10/26 09:06:12;;;;;;;36.08;21.02;;;12.60;92.50;;;;;;9163633;19;20022;-66
2023/10/26 09:09:20;;;;;;;34.97;21.23;;;12.50;92.40;;;;;;9163648;19;20010;-66
2023/10/26 09:12:27;;;;;;;32.95;20.60;;;12.50;92.60;;;;;;9157352;19;20019;-67
2023/10/26 09:15:52;;;;;;;35.17;20.60;;;12.60;92.50;;;;;;9159840;19;20022;-68
2023/10/26 09:19:01;;;;;;;35.72;20.42;;;12.50;92.40;;;;;;9160577;19;20791;-67
2023/10/26 09:22:13;;;;;;;36.45;20.20;;;12.60;92.60;;;;;;9159627;19;20010;-66
2023/10/26 09:25:19;;;;;;;38.38;20.42;;;12.60;92.60;;;;;;9160236;19;20033;-67
2023/10/26 09:28:26;;;;;;;33.92;21.60;;;12.70;92.90;;;;;;9163451;19;20026;-67
2023/10/26 09:31:34;;;;;;;43.15;21.27;;;12.70;92.50;;;;;;9161817;19;20019;-67
2023/10/26 09:34:43;;;;;;;37.28;22.58;;;12.70;92.50;;;;;;9162614;19;20018;-68
2023/10/26 09:37:53;;;;;;;36.28;19.80;;;12.70;92.60;;;;;;9162368;19;20014;-68
2023/10/26 09:41:01;;;;;;;38.40;21.90;;;12.80;92.60;;;;;;9162493;19;20025;-67
2023/10/26 09:44:07;;;;;;;32.40;19.33;;;12.80;92.20;;;;;;9161874;19;20021;-67
2023/10/26 09:47:18;;;;;;;36.80;21.13;;;12.90;91.30;;;;;;9164171;19;20021;-67
2023/10/26 09:50:24;;;;;;;32.45;20.15;;;13.00;91.30;;;;;;9162563;19;20716;-67
2023/10/26 09:53:37;;;;;;;36.05;19.42;;;12.90;91.10;;;;;;9162743;19;20022;-68
2023/10/26 09:56:47;;;;;;;32.58;20.02;;;13.00;91.00;;;;;;9162935;19;20015;-68
2023/10/26 09:59:55;;;;;;;33.70;19.80;;;13.30;91.20;;;;;;9163398;19;20018;-71
2023/10/26 10:03:18;;;;;;;29.73;18.65;;;13.00;91.00;;;;;;9167552;19;20372;-69
2023/10/26 10:06:53;;;;;;;37.45;19.73;;;13.00;91.00;;;;;;9175335;19;20010;-67
2023/10/26 10:10:09;;;;;;;35.15;18.90;;;13.10;90.70;;;;;;9172236;19;20014;-67
2023/10/26 10:13:38;;;;;;;31.75;20.05;;;13.10;91.00;;;;;;9167728;19;20014;-68
2023/10/26 10:16:54;;;;;;;31.02;19.23;;;13.20;91.20;;;;;;9169979;19;20586;-67
2023/10/26 10:20:35;;;;;;;29.50;19.13;;;13.20;91.00;;;;;;9168868;19;20021;-70
2023/10/26 10:23:41;;;;;;;34.63;19.48;;;13.30;90.80;;;;;;9165832;19;20023;-69
2023/10/26 10:27:09;;;;;;;32.00;18.90;;;13.30;90.90;;;;;;9172128;19;20021;-69
2023/10/26 10:30:16;;;;;;;31.95;19.23;;;13.30;90.60;;;;;;9171643;19;20352;-70
2023/10/26 10:33:26;;;;;;;39.50;19.23;;;13.40;91.00;;;;;;9171416;19;20025;-70
2023/10/26 10:37:09;;;;;;;39.42;19.52;;;13.40;91.00;;;;;;9172581;19;20480;-69
2023/10/26 10:40:19;;;;;;;33.65;18.40;;;13.40;90.80;;;;;;9165439;19;20041;-68
2023/10/26 10:43:32;;;;;;;28.60;18.45;;;13.50;90.90;;;;;;9161525;19;20451;-69
2023/10/26 10:46:40;;;;;;;32.55;19.75;;;13.50;90.90;;;;;;9164844;19;20021;-70
2023/10/26 10:49:45;;;;;;;26.67;17.23;;;13.60;90.90;;;;;;9165001;19;20082;-70
2023/10/26 10:52:56;;;;;;;30.50;18.15;;;13.60;90.90;;;;;;9168895;19;20019;-71
2023/10/26 10:56:04;;;;;;;32.63;17.08;;;13.70;90.90;;;;;;9169696;19;20345;-71
2023/10/26 10:59:23;;;;;;;30.30;18.25;;;13.60;91.00;;;;;;9169224;19;20011;-70
2023/10/26 11:02:29;;;;;;;29.02;17.95;;;13.70;91.30;;;;;;9164943;19;20463;-70
2023/10/26 11:05:39;;;;;;;31.90;17.83;;;13.80;91.00;;;;;;9166814;19;20019;-69
2023/10/26 11:08:47;;;;;;;30.90;16.70;;;13.70;91.00;;;;;;9166835;19;20479;-70
2023/10/26 11:11:55;;;;;;;27.40;17.60;;;13.80;90.80;;;;;;9158953;19;20018;-72
2023/10/26 11:15:01;;;;;;;29.23;17.20;;;13.80;90.80;;;;;;9166911;19;20496;-72
2023/10/26 11:18:11;;;;;;;30.70;16.75;;;13.90;90.90;;;;;;9165495;19;20010;-72
2023/10/26 11:21:20;;;;;;;27.67;16.17;;;13.90;91.00;;;;;;9165640;19;20022;-72
2023/10/26 11:24:38;;;;;;;28.83;17.02;;;13.90;90.90;;;;;;9168137;19;20033;-72
2023/10/26 11:27:47;;;;;;;28.77;16.75;;;13.90;90.70;;;;;;9167971;19;20018;-71
2023/10/26 11:30:59;;;;;;;27.13;16.63;;;14.00;90.80;;;;;;9164000;19;20456;-71
2023/10/26 11:34:08;;;;;;;28.98;17.98;;;14.00;90.90;;;;;;9167207;19;20048;-70
2023/10/26 11:37:16;;;;;;;25.70;16.17;;;13.90;90.80;;;;;;9168893;19;20022;-70
2023/10/26 11:40:31;;;;;;;30.63;16.67;;;14.00;90.90;;;;;;9167069;19;20057;-70
2023/10/26 11:43:39;;;;;;;38.42;16.73;;;14.10;91.40;;;;;;9164692;19;20029;-72
2023/10/26 11:46:44;;;;;;;30.23;16.63;;;14.00;91.50;;;;;;9166892;19;20043;-71
2023/10/26 11:49:52;;;;;;;26.08;16.45;;;14.10;91.60;;;;;;9165640;19;20452;-70
2023/10/26 11:52:59;;;;;;;23.52;15.40;;;14.20;91.30;;;;;;9165902;19;20015;-71
2023/10/26 11:56:10;;;;;;;24.90;14.98;;;14.10;91.30;;;;;;9161651;19;20006;-71
2023/10/26 11:59:15;;;;;;;20.20;13.23;;;14.10;90.90;;;;;;9163394;19;20029;-71
2023/10/26 12:02:27;;;;;;;26.40;15.55;;;14.20;91.10;;;;;;9164447;19;20014;-71
2023/10/26 12:05:33;;;;;;;27.98;16.30;;;14.20;90.90;;;;;;9166204;19;20019;-71
2023/10/26 12:08:40;;;;;;;25.52;15.15;;;14.20;91.20;;;;;;9167834;19;20007;-70
2023/10/26 12:11:48;;;;;;;24.23;14.85;;;14.20;91.10;;;;;;9162666;19;20101;-72
2023/10/26 12:14:56;;;;;;;21.20;14.38;;;14.30;91.10;;;;;;9166475;19;20369;-71
2023/10/26 12:18:02;;;;;;;24.83;14.57;;;14.40;91.20;;;;;;9166481;19;20022;-71
2023/10/26 12:21:10;;;;;;;20.85;13.55;;;14.30;91.60;;;;;;9165059;19;20014;-71
2023/10/26 12:24:15;;;;;;;23.67;14.00;;;14.30;91.50;;;;;;9160557;19;20018;-71
2023/10/26 12:27:25;;;;;;;28.23;16.75;;;14.40;91.40;;;;;;9165964;19;20025;-71
2023/10/26 12:30:31;;;;;;;28.75;17.13;;;14.40;91.20;;;;;;9164552;19;20022;-71
2023/10/26 12:33:39;;;;;;;29.45;15.95;;;14.40;91.40;;;;;;9163015;19;20015;-70
2023/10/26 12:36:46;;;;;;;26.58;16.02;;;14.40;91.10;;;;;;9166115;19;20449;-70
2023/10/26 12:39:54;;;;;;;29.77;15.93;;;14.50;91.20;;;;;;9163592;19;20015;-70
2023/10/26 12:43:03;;;;;;;24.52;15.82;;;14.50;91.20;;;;;;9163551;19;20127;-70
2023/10/26 12:46:10;;;;;;;25.38;15.15;;;14.40;91.20;;;;;;9162019;19;20467;-71
2023/10/26 12:49:16;;;;;;;25.05;15.10;;;14.40;91.10;;;;;;9164858;19;20022;-74
2023/10/26 12:52:23;;;;;;;27.55;15.70;;;14.40;91.10;;;;;;9162428;19;20014;-71
2023/10/26 12:55:29;;;;;;;23.60;15.30;;;14.40;90.90;;;;;;9163959;19;21111;-71
2023/10/26 12:58:40;;;;;;;22.88;15.50;;;14.40;91.20;;;;;;9164486;19;20483;-70
2023/10/26 13:01:45;;;;;;;25.85;14.77;;;14.40;90.80;;;;;;9162779;19;20517;-70
2023/10/26 13:04:52;;;;;;;22.85;13.80;;;14.40;90.90;;;;;;9159269;19;20014;-71
2023/10/26 13:07:58;;;;;;;21.67;14.02;;;14.40;91.10;;;;;;9164422;19;20114;-70
2023/10/26 13:11:05;;;;;;;26.48;16.38;;;14.40;90.90;;;;;;9160502;19;20407;-70
2023/10/26 13:14:14;;;;;;;28.25;15.00;;;14.40;90.90;;;;;;9162041;19;20019;-70
2023/10/26 13:17:21;;;;;;;27.33;14.55;;;14.40;91.10;;;;;;9160428;19;20365;-70
2023/10/26 13:20:26;;;;;;;22.58;14.65;;;14.40;90.90;;;;;;9161128;19;20015;-70
2023/10/26 13:23:34;;;;;;;20.60;14.32;;;14.40;90.80;;;;;;9160502;19;20022;-70
2023/10/26 13:26:40;;;;;;;29.92;14.80;;;14.50;90.90;;;;;;9161953;19;20021;-70
2023/10/26 13:29:50;;;;;;;26.42;15.43;;;14.40;91.00;;;;;;9161708;19;20023;-72
2023/10/26 13:32:55;;;;;;;27.70;14.40;;;14.40;90.80;;;;;;9162294;19;20022;-70
2023/10/26 13:36:03;;;;;;;23.05;14.45;;;14.50;90.90;;;;;;9166711;19;20018;-70
2023/10/26 13:39:08;;;;;;;21.48;13.55;;;14.50;91.30;;;;;;9167027;19;20014;-70
2023/10/26 13:42:16;;;;;;;19.70;13.98;;;14.50;91.50;;;;;;9172606;19;20026;-70
2023/10/26 13:45:24;;;;;;;22.92;16.00;;;14.60;92.80;;;;;;9167969;19;20764;-71
2023/10/26 13:48:32;;;;;;;22.95;13.85;;;14.60;90.60;;;;;;9172007;19;20018;-70
2023/10/26 13:51:37;;;;;;;25.40;13.98;;;14.60;90.10;;;;;;9170434;19;20018;-70
2023/10/26 13:54:45;;;;;;;20.02;14.13;;;14.60;90.00;;;;;;9170865;19;20011;-70
2023/10/26 13:57:51;;;;;;;23.00;13.43;;;14.60;89.30;;;;;;9170116;19;20070;-70
2023/10/26 14:01:01;;;;;;;21.70;14.82;;;14.60;89.40;;;;;;9172359;19;20480;-71
2023/10/26 14:04:07;;;;;;;24.80;14.93;;;14.50;89.50;;;;;;9169724;19;20030;-69
2023/10/26 14:07:15;;;;;;;18.73;13.70;;;14.50;89.00;;;;;;9172335;19;20488;-71
2023/10/26 14:10:30;;;;;;;22.95;14.13;;;14.60;89.20;;;;;;9170339;19;20773;-70
2023/10/26 14:13:39;;;;;;;25.85;14.30;;;14.60;88.80;;;;;;9166002;19;20019;-69
2023/10/26 14:16:49;;;;;;;22.88;14.75;;;14.60;89.20;;;;;;9171935;19;20006;-70
2023/10/26 14:19:56;;;;;;;22.10;13.95;;;14.60;89.30;;;;;;9167874;19;20021;-70
2023/10/26 14:23:03;;;;;;;20.65;13.98;;;14.60;89.20;;;;;;9170530;19;20052;-71
2023/10/26 14:26:12;;;;;;;26.42;13.98;;;14.60;89.10;;;;;;9169543;19;20309;-71
2023/10/26 14:29:17;;;;;;;23.60;14.13;;;14.50;89.50;;;;;;9172009;19;20010;-70
2023/10/26 14:32:28;;;;;;;22.17;13.25;;;14.50;88.70;;;;;;9170652;19;20015;-71
2023/10/26 14:35:33;;;;;;;24.05;14.52;;;14.50;88.50;;;;;;9168790;19;20432;-68
2023/10/26 14:38:41;;;;;;;20.38;13.55;;;14.50;88.90;;;;;;9170652;19;20037;-70
2023/10/26 14:41:47;;;;;;;23.58;14.60;;;14.60;89.00;;;;;;9168329;19;20127;-70
2023/10/26 14:44:56;;;;;;;22.23;13.57;;;14.40;88.70;;;;;;9168545;19;20026;-70
2023/10/26 14:48:04;;;;;;;25.05;14.23;;;14.30;88.90;;;;;;9166694;19;20089;-70
2023/10/26 14:51:11;;;;;;;27.05;14.88;;;14.40;88.60;;;;;;9170206;19;20018;-70
2023/10/26 14:54:19;;;;;;;20.33;14.07;;;14.40;89.00;;;;;;9168252;19;20364;-70
2023/10/26 14:57:26;;;;;;;20.48;13.63;;;14.30;88.60;;;;;;9167637;19;20030;-70
2023/10/26 15:00:32;;;;;;;23.85;15.52;;;14.30;89.40;;;;;;9167713;19;20105;-70
2023/10/26 15:03:42;;;;;;;20.90;14.48;;;14.20;88.80;;;;;;9168819;19;20014;-70
2023/10/26 15:06:49;;;;;;;20.77;13.65;;;14.20;89.30;;;;;;9167426;19;20026;-70
2023/10/26 15:09:59;;;;;;;22.48;14.95;;;14.20;89.10;;;;;;9168756;19;20021;-69
2023/10/26 15:13:27;;;;;;;24.25;14.85;;;13.70;88.60;;;;;;9163125;19;20019;-71
2023/10/26 15:16:35;;;;;;;20.42;13.52;;;14.20;89.20;;;;;;9166241;19;20026;-70
2023/10/26 15:19:43;;;;;;;22.52;15.23;;;14.20;89.40;;;;;;9167418;19;20015;-69
2023/10/26 15:22:50;;;;;;;27.02;16.25;;;14.10;90.00;;;;;;9168694;19;20011;-69
2023/10/26 15:25:58;;;;;;;27.25;16.33;;;14.20;89.70;;;;;;9166041;19;20048;-70
2023/10/26 15:29:05;;;;;;;28.30;17.17;;;14.10;89.40;;;;;;9168812;19;20018;-69
2023/10/26 15:32:11;;;;;;;26.13;17.23;;;14.10;89.40;;;;;;9167940;19;21449;-70
2023/10/26 15:35:21;;;;;;;24.48;15.98;;;14.10;89.60;;;;;;9170228;19;20007;-70
2023/10/26 15:38:29;;;;;;;24.92;15.70;;;14.00;89.80;;;;;;9169645;19;20026;-70
2023/10/26 15:41:42;;;;;;;24.48;16.45;;;14.00;89.90;;;;;;9167598;19;20010;-71
2023/10/26 15:44:51;;;;;;;29.90;17.92;;;14.00;90.00;;;;;;9165679;19;20099;-71
2023/10/26 15:47:59;;;;;;;28.73;17.63;;;14.00;89.80;;;;;;9164969;19;20022;-70
2023/10/26 15:51:16;;;;;;;26.27;17.02;;;14.00;89.80;;;;;;9166911;19;20089;-69
2023/10/26 15:54:23;;;;;;;39.20;17.00;;;14.00;90.00;;;;;;9166235;19;20014;-70
2023/10/26 15:57:29;;;;;;;25.13;16.33;;;14.00;90.10;;;;;;9167916;19;20018;-69
2023/10/26 16:00:39;;;;;;;30.48;16.20;;;14.00;90.10;;;;;;9167161;19;20066;-69